Time;durP1;ratioP1;P1;durP2;ratioP2;P2;SDS_P1;SDS_P2;PMS_P1;PMS_P2;Temp;Humidity;BMP_temperature;BMP_pressure;BME280_temperature;BME280_humidity;BME280_pressure;Samples;Min_cycle;Max_cycle;Signal;HPM_P1;HPM_P2
2022/04/07 00:00:30;;;;;;;0.27;0.27;;;11.00;99.90;;;;;;5122039;27;20183;-48
2022/04/07 00:03:14;;;;;;;0.20;0.20;;;11.10;99.90;;;;;;5123766;27;20537;-58
2022/04/07 00:05:58;;;;;;;0.60;0.60;;;11.10;99.90;;;;;;5125182;27;20231;-56
2022/04/07 00:08:43;;;;;;;0.30;0.30;;;11.10;99.90;;;;;;5122254;27;20186;-54
2022/04/07 00:11:27;;;;;;;0.20;0.20;;;11.10;99.90;;;;;;5124569;28;20242;-59
2022/04/07 00:14:11;;;;;;;0.10;0.10;;;11.10;99.90;;;;;;5124212;28;20196;-58
2022/04/07 00:16:55;;;;;;;1.70;0.20;;;11.10;99.90;;;;;;5122539;28;20207;-59
2022/04/07 00:19:40;;;;;;;0.00;0.00;;;11.10;99.90;;;;;;5124368;28;20244;-50
2022/04/07 00:22:24;;;;;;;0.10;0.10;;;11.10;99.90;;;;;;5123884;28;20294;-60
2022/04/07 00:25:10;;;;;;;0.10;0.10;;;11.10;99.90;;;;;;5123380;28;20191;-60
2022/04/07 00:27:54;;;;;;;0.10;0.10;;;11.10;99.90;;;;;;5125059;28;20191;-53
2022/04/07 00:30:43;;;;;;;0.10;0.10;;;11.00;99.90;;;;;;5122206;28;20264;-59
2022/04/07 00:33:27;;;;;;;1.30;0.10;;;11.00;99.90;;;;;;5123804;28;20208;-55
2022/04/07 00:36:12;;;;;;;11.27;6.73;;;11.00;99.90;;;;;;5124667;28;20199;-56
2022/04/07 00:38:56;;;;;;;0.17;0.17;;;11.00;99.90;;;;;;5122471;28;20194;-60
2022/04/07 00:41:42;;;;;;;0.10;0.10;;;10.90;99.90;;;;;;5124069;28;20276;-60
2022/04/07 00:44:28;;;;;;;0.17;0.17;;;10.80;99.90;;;;;;5124139;28;20215;-59
2022/04/07 00:47:12;;;;;;;0.33;0.33;;;10.80;99.90;;;;;;5122010;28;20268;-58
2022/04/07 00:49:57;;;;;;;0.20;0.20;;;10.80;99.90;;;;;;5124062;28;20219;-56
2022/04/07 00:52:45;;;;;;;0.20;0.20;;;10.80;99.90;;;;;;5123738;28;20259;-59
2022/04/07 00:55:30;;;;;;;0.37;0.37;;;10.80;99.90;;;;;;5122264;28;20225;-54
2022/04/07 00:58:15;;;;;;;0.67;0.27;;;10.80;99.90;;;;;;5125294;28;20196;-60
2022/04/07 01:01:00;;;;;;;0.97;0.40;;;10.70;99.90;;;;;;5122046;28;20284;-60
2022/04/07 01:03:44;;;;;;;0.13;0.13;;;10.70;99.90;;;;;;5123185;28;20212;-56
2022/04/07 01:06:29;;;;;;;0.20;0.20;;;10.70;99.90;;;;;;5125824;27;20276;-58
2022/04/07 01:09:15;;;;;;;0.20;0.20;;;10.70;99.90;;;;;;5125863;27;20311;-58
2022/04/07 01:11:59;;;;;;;0.40;0.40;;;10.70;99.90;;;;;;5127666;27;20278;-57
2022/04/07 01:15:02;;;;;;;0.53;0.30;;;10.70;99.90;;;;;;5127533;27;20355;-59
2022/04/07 01:17:46;;;;;;;0.57;0.57;;;10.70;99.90;;;;;;5125521;27;20284;-58
2022/04/07 01:20:30;;;;;;;0.93;0.70;;;10.60;99.90;;;;;;5127416;27;20244;-56
2022/04/07 01:23:14;;;;;;;0.30;0.30;;;10.60;99.90;;;;;;5127741;27;20188;-53
2022/04/07 01:25:59;;;;;;;0.43;0.40;;;10.60;99.90;;;;;;5125361;27;20280;-53
2022/04/07 01:28:48;;;;;;;1.13;0.50;;;10.60;99.90;;;;;;5127538;27;20292;-60
2022/04/07 01:31:33;;;;;;;0.30;0.30;;;10.60;99.90;;;;;;5126634;27;20192;-60
2022/04/07 01:34:18;;;;;;;0.57;0.57;;;10.60;99.90;;;;;;5126165;27;20231;-56
2022/04/07 01:37:02;;;;;;;3.80;0.40;;;10.50;99.90;;;;;;5128158;27;20241;-57
2022/04/07 01:39:49;;;;;;;0.50;0.50;;;10.50;99.90;;;;;;5124895;27;20206;-57
2022/04/07 01:42:35;;;;;;;0.50;0.50;;;10.50;99.90;;;;;;5126347;27;20258;-59
2022/04/07 01:45:20;;;;;;;0.40;0.40;;;10.50;99.90;;;;;;5128065;27;20309;-59
2022/04/07 01:48:07;;;;;;;0.40;0.40;;;10.50;99.90;;;;;;5125145;27;20268;-50
2022/04/07 01:50:51;;;;;;;0.30;0.30;;;10.50;99.90;;;;;;5126800;27;20299;-56
2022/04/07 01:53:37;;;;;;;0.37;0.37;;;10.40;99.90;;;;;;5127129;27;20257;-58
2022/04/07 01:56:22;;;;;;;0.40;0.40;;;10.40;99.90;;;;;;5124931;27;20190;-57
2022/04/07 01:59:08;;;;;;;0.30;0.30;;;10.30;99.90;;;;;;5126581;27;20225;-60
2022/04/07 02:01:53;;;;;;;0.20;0.20;;;10.30;99.90;;;;;;5126189;27;20199;-58
2022/04/07 02:05:11;;;;;;;0.33;0.33;;;10.20;99.90;;;;;;5125547;27;20195;-54
2022/04/07 02:07:55;;;;;;;0.40;0.40;;;10.20;99.90;;;;;;5050534;28;20232;-56
2022/04/07 02:10:40;;;;;;;0.63;0.50;;;10.20;99.90;;;;;;5050068;28;21398;-58
2022/04/07 02:13:24;;;;;;;0.20;0.20;;;10.20;99.90;;;;;;5048005;28;20193;-56
2022/04/07 02:16:14;;;;;;;0.20;0.20;;;10.10;99.90;;;;;;5050222;28;20205;-54
2022/04/07 02:18:58;;;;;;;0.20;0.20;;;10.10;99.90;;;;;;5047585;28;20224;-51
2022/04/07 02:21:45;;;;;;;0.30;0.30;;;10.20;99.90;;;;;;5048848;28;20290;-55
2022/04/07 02:24:31;;;;;;;0.10;0.10;;;10.20;99.90;;;;;;5050791;28;20201;-51
2022/04/07 02:27:16;;;;;;;0.77;0.30;;;10.10;99.90;;;;;;5047907;28;20206;-53
2022/04/07 02:30:00;;;;;;;0.20;0.20;;;10.10;99.90;;;;;;5049209;28;20305;-50
2022/04/07 02:32:45;;;;;;;0.30;0.30;;;10.20;99.90;;;;;;5050342;28;20278;-59
2022/04/07 02:35:29;;;;;;;0.30;0.20;;;10.20;99.90;;;;;;5047260;28;20201;-50
2022/04/07 02:38:14;;;;;;;0.33;0.30;;;10.20;99.90;;;;;;5049641;28;20222;-54
2022/04/07 02:40:58;;;;;;;0.20;0.20;;;10.20;99.90;;;;;;5049288;28;20269;-59
2022/04/07 02:43:43;;;;;;;0.40;0.37;;;10.00;99.90;;;;;;5073387;27;20196;-60
2022/04/07 02:46:28;;;;;;;0.30;0.30;;;9.80;99.90;;;;;;5125971;27;20199;-51
2022/04/07 02:49:12;;;;;;;0.30;0.30;;;9.80;99.90;;;;;;5124092;27;20219;-54
2022/04/07 02:51:57;;;;;;;0.43;0.43;;;9.60;99.90;;;;;;5124179;27;21344;-58
2022/04/07 02:54:41;;;;;;;0.20;0.20;;;9.60;99.90;;;;;;5126016;27;20198;-49
2022/04/07 02:57:30;;;;;;;0.83;0.57;;;9.60;99.90;;;;;;5123768;27;20199;-53
2022/04/07 03:00:15;;;;;;;0.20;0.20;;;9.50;99.90;;;;;;5124751;27;20195;-50
2022/04/07 03:02:59;;;;;;;0.43;0.43;;;9.50;99.90;;;;;;5127136;27;20203;-52
2022/04/07 03:05:44;;;;;;;0.20;0.20;;;9.50;99.90;;;;;;5123961;27;20223;-54
2022/04/07 03:08:28;;;;;;;0.23;0.23;;;9.40;99.90;;;;;;5125499;27;20322;-54
2022/04/07 03:11:13;;;;;;;0.20;0.20;;;9.40;99.90;;;;;;5125294;27;20223;-53
2022/04/07 03:13:58;;;;;;;0.27;0.27;;;9.30;99.90;;;;;;5123137;27;20192;-54
2022/04/07 03:16:42;;;;;;;0.40;0.40;;;9.20;99.90;;;;;;5125267;27;20203;-55
2022/04/07 03:19:27;;;;;;;0.27;0.27;;;9.10;99.90;;;;;;5124154;27;20192;-59
2022/04/07 03:22:12;;;;;;;1.23;0.30;;;9.10;99.90;;;;;;5124244;27;20262;-50
2022/04/07 03:24:56;;;;;;;0.40;0.40;;;9.20;99.90;;;;;;5125833;27;20261;-52
2022/04/07 03:27:40;;;;;;;1.30;0.40;;;9.20;99.90;;;;;;5122911;27;20231;-52
2022/04/07 03:30:25;;;;;;;1.30;0.30;;;9.30;99.90;;;;;;5124385;27;20273;-52
2022/04/07 03:33:10;;;;;;;0.57;0.30;;;9.40;99.90;;;;;;5126026;27;20268;-56
2022/04/07 03:35:54;;;;;;;0.33;0.33;;;9.40;99.90;;;;;;5122952;27;20211;-54
2022/04/07 03:38:39;;;;;;;0.20;0.20;;;9.30;99.90;;;;;;5124882;27;20226;-50
2022/04/07 03:41:23;;;;;;;0.33;0.30;;;9.30;99.90;;;;;;5124406;27;20231;-55
2022/04/07 03:44:09;;;;;;;0.20;0.20;;;9.30;99.90;;;;;;5122501;27;20665;-59
2022/04/07 03:46:54;;;;;;;0.17;0.10;;;9.30;99.90;;;;;;5125347;27;20280;-53
2022/04/07 03:49:39;;;;;;;0.43;0.43;;;9.20;99.90;;;;;;5123007;27;20311;-59
2022/04/07 03:52:23;;;;;;;0.57;0.40;;;9.10;99.90;;;;;;5123526;27;20241;-53
2022/04/07 03:55:09;;;;;;;0.10;0.10;;;9.10;99.90;;;;;;5125026;27;20196;-53
2022/04/07 03:57:53;;;;;;;0.20;0.20;;;9.20;99.90;;;;;;5122692;27;20199;-56
2022/04/07 04:00:38;;;;;;;0.20;0.20;;;9.10;99.90;;;;;;5124694;27;20191;-53
2022/04/07 04:03:23;;;;;;;1.20;0.30;;;9.10;99.90;;;;;;5125216;27;20293;-56
2022/04/07 04:06:07;;;;;;;0.40;0.20;;;9.10;99.90;;;;;;5122392;27;20190;-56
2022/04/07 04:08:51;;;;;;;0.40;0.40;;;9.10;99.90;;;;;;5124758;27;20637;-58
2022/04/07 04:11:35;;;;;;;0.10;0.10;;;9.10;99.90;;;;;;5124137;28;20192;-59
2022/04/07 04:14:19;;;;;;;0.53;0.43;;;9.00;99.90;;;;;;5122292;28;20191;-57
2022/04/07 04:17:04;;;;;;;0.20;0.20;;;8.90;99.90;;;;;;5124196;28;20191;-51
2022/04/07 04:19:48;;;;;;;0.27;0.27;;;8.90;99.90;;;;;;5123280;28;20233;-59
2022/04/07 04:22:32;;;;;;;0.77;0.30;;;8.80;99.90;;;;;;5123357;28;20299;-59
2022/04/07 04:25:16;;;;;;;1.03;0.30;;;8.80;99.90;;;;;;5124779;28;20202;-57
2022/04/07 04:28:00;;;;;;;0.40;0.40;;;8.70;99.90;;;;;;5121958;28;20238;-48
2022/04/07 04:30:45;;;;;;;0.40;0.40;;;8.70;99.90;;;;;;5123884;28;20287;-54
2022/04/07 04:33:30;;;;;;;0.40;0.40;;;8.80;99.90;;;;;;5125074;28;20207;-61
2022/04/07 04:36:14;;;;;;;0.20;0.20;;;8.80;99.90;;;;;;5121620;28;20240;-57
2022/04/07 04:38:58;;;;;;;0.30;0.30;;;8.90;99.90;;;;;;5124010;28;20260;-56
2022/04/07 04:41:42;;;;;;;0.20;0.20;;;8.90;99.90;;;;;;5125247;27;20223;-55
2022/04/07 04:44:26;;;;;;;0.27;0.27;;;9.00;99.90;;;;;;5126617;27;20187;-53
2022/04/07 04:47:10;;;;;;;0.20;0.10;;;9.20;99.90;;;;;;5128529;27;20196;-50
2022/04/07 04:49:54;;;;;;;0.27;0.27;;;9.20;99.90;;;;;;5126869;27;20343;-52
2022/04/07 04:52:39;;;;;;;0.37;0.37;;;9.30;99.90;;;;;;5127496;27;20252;-56
2022/04/07 04:55:23;;;;;;;0.43;0.30;;;9.30;99.90;;;;;;5128759;27;20207;-58
2022/04/07 04:58:07;;;;;;;0.73;0.30;;;9.30;99.90;;;;;;5126069;27;20192;-57
2022/04/07 05:00:52;;;;;;;0.10;0.10;;;9.40;99.90;;;;;;5127709;27;20237;-53
2022/04/07 05:03:36;;;;;;;0.20;0.20;;;9.30;99.90;;;;;;5128213;27;20280;-57
2022/04/07 05:06:20;;;;;;;0.30;0.20;;;9.40;99.90;;;;;;5125566;27;20191;-57
2022/04/07 05:09:04;;;;;;;0.20;0.20;;;9.40;99.90;;;;;;5127688;27;20214;-49
2022/04/07 05:11:49;;;;;;;0.40;0.20;;;9.40;99.90;;;;;;5126890;27;20203;-57
2022/04/07 05:14:34;;;;;;;0.40;0.40;;;9.50;99.90;;;;;;5126461;27;20214;-53
2022/04/07 05:17:19;;;;;;;0.30;0.30;;;9.60;99.90;;;;;;5128301;27;20245;-50
2022/04/07 05:20:04;;;;;;;0.23;0.23;;;9.60;99.90;;;;;;5126021;27;20195;-51
2022/04/07 05:22:48;;;;;;;0.20;0.20;;;9.60;99.90;;;;;;5127109;27;20200;-55
2022/04/07 05:25:33;;;;;;;0.10;0.10;;;9.60;99.90;;;;;;5127526;27;20199;-60
2022/04/07 05:28:17;;;;;;;0.20;0.20;;;9.60;99.90;;;;;;5122261;27;20191;-52
2022/04/07 05:31:01;;;;;;;0.50;0.50;;;9.70;99.90;;;;;;5125322;27;20272;-57
2022/04/07 05:33:46;;;;;;;0.20;0.20;;;9.70;99.90;;;;;;5125271;27;20199;-57
2022/04/07 05:36:30;;;;;;;0.10;0.10;;;9.80;99.90;;;;;;5150668;27;20183;-49
2022/04/07 05:39:15;;;;;;;0.33;0.20;;;9.70;99.90;;;;;;5153289;27;20182;-46
2022/04/07 05:41:59;;;;;;;0.10;0.10;;;9.80;99.90;;;;;;5152571;27;20320;-53
2022/04/07 05:44:44;;;;;;;0.20;0.20;;;9.80;99.90;;;;;;5153102;27;20249;-50
2022/04/07 05:47:28;;;;;;;0.30;0.30;;;9.80;99.90;;;;;;5155837;27;20213;-49
2022/04/07 05:50:13;;;;;;;0.10;0.10;;;9.80;99.90;;;;;;5122709;27;20264;-50
2022/04/07 05:52:57;;;;;;;0.20;0.10;;;9.90;99.90;;;;;;5123832;27;20237;-56
2022/04/07 05:55:41;;;;;;;0.20;0.20;;;9.90;99.90;;;;;;5126226;27;20251;-57
2022/04/07 05:58:26;;;;;;;0.10;0.10;;;10.00;99.90;;;;;;5120687;27;20194;-54
2022/04/07 06:01:10;;;;;;;0.10;0.10;;;10.00;99.90;;;;;;5125398;27;20191;-59
2022/04/07 06:03:54;;;;;;;0.20;0.20;;;10.10;99.90;;;;;;5123970;27;20191;-53
2022/04/07 06:06:39;;;;;;;0.13;0.13;;;10.10;99.90;;;;;;5123002;27;20191;-59
2022/04/07 06:09:23;;;;;;;0.40;0.20;;;10.10;99.90;;;;;;5125525;27;20292;-52
2022/04/07 06:12:09;;;;;;;0.20;0.20;;;10.10;99.90;;;;;;5123956;27;20252;-57
2022/04/07 06:14:53;;;;;;;0.13;0.10;;;10.20;99.90;;;;;;5132865;27;20203;-60
2022/04/07 06:17:44;;;;;;;0.10;0.10;;;10.30;99.90;;;;;;5124953;27;20242;-52
2022/04/07 06:20:28;;;;;;;0.10;0.10;;;10.40;99.90;;;;;;5131929;27;20191;-49
2022/04/07 06:23:12;;;;;;;0.00;0.00;;;10.40;99.90;;;;;;5135623;27;20186;-51
2022/04/07 06:25:56;;;;;;;1.13;0.20;;;10.50;99.90;;;;;;5132046;27;20284;-58
2022/04/07 06:28:42;;;;;;;0.67;0.10;;;10.50;99.90;;;;;;5127440;27;20187;-59
2022/04/07 06:31:26;;;;;;;0.10;0.10;;;10.50;99.90;;;;;;5134795;27;20191;-54
2022/04/07 06:34:11;;;;;;;0.07;0.07;;;10.40;99.90;;;;;;5135762;27;20258;-56
2022/04/07 06:36:55;;;;;;;0.20;0.20;;;10.40;99.90;;;;;;5135353;27;20214;-52
2022/04/07 06:39:40;;;;;;;0.10;0.10;;;10.40;99.90;;;;;;5119465;27;20238;-54
2022/04/07 06:42:24;;;;;;;0.00;0.00;;;10.60;99.90;;;;;;5117873;27;20235;-52
2022/04/07 06:45:08;;;;;;;0.00;0.00;;;10.60;99.90;;;;;;5117551;27;20192;-58
2022/04/07 06:47:53;;;;;;;0.00;0.00;;;10.60;99.90;;;;;;5138112;27;20618;-60
2022/04/07 06:50:37;;;;;;;0.30;0.30;;;10.60;99.90;;;;;;5132754;27;20214;-51
2022/04/07 06:53:22;;;;;;;0.20;0.20;;;10.60;99.90;;;;;;5134817;27;20190;-57
2022/04/07 06:56:08;;;;;;;0.10;0.10;;;10.60;99.90;;;;;;5146282;27;20199;-59
2022/04/07 06:58:54;;;;;;;0.10;0.10;;;10.60;99.90;;;;;;5111652;27;20250;-52
2022/04/07 07:01:39;;;;;;;0.00;0.00;;;10.50;99.90;;;;;;5105114;27;20196;-55
2022/04/07 07:04:24;;;;;;;0.27;0.10;;;10.50;99.90;;;;;;5133522;27;20209;-52
2022/04/07 07:07:11;;;;;;;0.97;0.10;;;10.60;99.90;;;;;;5122617;27;20180;-59
2022/04/07 07:09:55;;;;;;;0.10;0.10;;;10.70;99.90;;;;;;5133196;27;20224;-53
2022/04/07 07:12:39;;;;;;;0.00;0.00;;;10.80;99.90;;;;;;5116919;27;20214;-56
2022/04/07 07:15:23;;;;;;;0.20;0.20;;;10.90;99.90;;;;;;5143075;27;20244;-59
2022/04/07 07:18:07;;;;;;;0.30;0.17;;;11.00;99.90;;;;;;5135569;27;20194;-58
2022/04/07 07:20:52;;;;;;;0.10;0.10;;;11.00;99.90;;;;;;5123316;27;20211;-59
2022/04/07 07:23:35;;;;;;;1.40;0.13;;;11.00;99.90;;;;;;5124328;27;20252;-58
2022/04/07 07:26:20;;;;;;;0.20;0.20;;;11.20;99.90;;;;;;5121584;27;20252;-60
2022/04/07 07:29:05;;;;;;;0.10;0.10;;;11.30;99.90;;;;;;5120505;27;20187;-55
2022/04/07 07:31:49;;;;;;;0.10;0.10;;;11.40;99.90;;;;;;5130776;27;20267;-51
2022/04/07 07:34:34;;;;;;;0.10;0.10;;;11.60;99.90;;;;;;5119648;27;20191;-55
2022/04/07 07:37:19;;;;;;;0.10;0.10;;;11.70;99.90;;;;;;5113714;27;20191;-58
2022/04/07 07:40:08;;;;;;;0.00;0.00;;;11.60;99.90;;;;;;5108578;27;20247;-46
2022/04/07 07:42:56;;;;;;;0.07;0.07;;;11.50;99.90;;;;;;5140845;27;20203;-54
2022/04/07 07:45:40;;;;;;;0.10;0.10;;;11.80;99.90;;;;;;5112244;27;20205;-51
2022/04/07 07:48:29;;;;;;;0.03;0.03;;;12.00;99.90;;;;;;5151457;27;20210;-61
2022/04/07 07:51:13;;;;;;;0.20;0.20;;;12.10;99.90;;;;;;5120472;27;20292;-56
2022/04/07 07:53:57;;;;;;;0.00;0.00;;;12.30;99.90;;;;;;5131145;27;20207;-49
2022/04/07 07:56:41;;;;;;;0.10;0.00;;;12.60;99.90;;;;;;5128726;27;20302;-55
2022/04/07 07:59:25;;;;;;;0.10;0.10;;;12.40;99.90;;;;;;5123443;27;20284;-57
2022/04/07 08:02:10;;;;;;;0.53;0.10;;;12.30;99.90;;;;;;5103324;27;20258;-58
2022/04/07 08:04:54;;;;;;;0.20;0.20;;;12.30;99.90;;;;;;5102676;28;20216;-60
2022/04/07 08:07:40;;;;;;;0.00;0.00;;;12.50;99.90;;;;;;5099236;28;20208;-56
2022/04/07 08:10:24;;;;;;;0.00;0.00;;;12.80;99.90;;;;;;5102591;28;20232;-58
2022/04/07 08:13:09;;;;;;;0.10;0.10;;;12.90;99.90;;;;;;5118246;28;20203;-54
2022/04/07 08:15:53;;;;;;;0.00;0.00;;;12.60;99.90;;;;;;5121134;27;20203;-60
2022/04/07 08:18:38;;;;;;;0.00;0.00;;;12.80;99.90;;;;;;5117167;27;20200;-53
2022/04/07 08:21:22;;;;;;;0.10;0.10;;;12.70;99.90;;;;;;5100912;28;20195;-54
2022/04/07 08:24:07;;;;;;;0.00;0.00;;;12.80;99.90;;;;;;5102803;28;20196;-50
2022/04/07 08:26:51;;;;;;;0.10;0.10;;;13.10;99.90;;;;;;5104179;28;20257;-60
2022/04/07 08:29:35;;;;;;;0.10;0.10;;;13.10;99.90;;;;;;5122023;28;20324;-47
2022/04/07 08:32:20;;;;;;;0.00;0.00;;;13.30;99.90;;;;;;5123659;28;20196;-55
2022/04/07 08:35:05;;;;;;;0.40;0.10;;;13.40;99.90;;;;;;5123729;28;20187;-57
2022/04/07 08:37:50;;;;;;;0.00;0.00;;;13.20;99.90;;;;;;5113950;28;20199;-55
2022/04/07 08:40:36;;;;;;;0.00;0.00;;;13.40;99.90;;;;;;5102539;28;20255;-52
2022/04/07 08:43:22;;;;;;;0.23;0.10;;;13.10;99.90;;;;;;5102340;28;20214;-55
2022/04/07 08:46:14;;;;;;;0.10;0.10;;;13.70;99.90;;;;;;5100915;28;20262;-52
2022/04/07 08:49:02;;;;;;;0.20;0.00;;;13.40;99.90;;;;;;5102784;28;20208;-61
2022/04/07 08:51:47;;;;;;;0.00;0.00;;;13.70;99.90;;;;;;5100802;28;20231;-58
2022/04/07 08:54:32;;;;;;;0.00;0.00;;;13.80;99.90;;;;;;5102313;28;20200;-56
2022/04/07 08:57:17;;;;;;;0.10;0.10;;;13.60;99.90;;;;;;5103057;28;20567;-48
2022/04/07 09:00:02;;;;;;;0.00;0.00;;;13.90;99.90;;;;;;5101006;28;20188;-49
2022/04/07 09:02:46;;;;;;;0.10;0.10;;;14.20;99.90;;;;;;5121099;27;20287;-56
2022/04/07 09:05:31;;;;;;;0.53;0.10;;;14.10;99.90;;;;;;5133011;27;20234;-48
2022/04/07 09:08:15;;;;;;;0.10;0.00;;;13.80;99.90;;;;;;5130830;27;20275;-58
2022/04/07 09:11:02;;;;;;;0.10;0.10;;;14.30;99.90;;;;;;5131269;27;20274;-60
2022/04/07 09:13:46;;;;;;;0.10;0.10;;;13.90;99.90;;;;;;5129857;27;20191;-58
2022/04/07 09:16:32;;;;;;;0.10;0.10;;;13.60;99.90;;;;;;5122592;27;20195;-54
2022/04/07 09:19:21;;;;;;;0.00;0.00;;;13.60;99.90;;;;;;5131862;27;20187;-56
2022/04/07 09:22:08;;;;;;;0.00;0.00;;;13.90;99.90;;;;;;5137106;27;20236;-58
2022/04/07 09:24:52;;;;;;;0.00;0.00;;;13.90;99.90;;;;;;5143672;27;20194;-56
2022/04/07 09:27:40;;;;;;;0.10;0.10;;;14.00;99.90;;;;;;5124992;27;20196;-59
2022/04/07 09:30:25;;;;;;;0.20;0.20;;;14.10;99.90;;;;;;5124766;27;20224;-53
2022/04/07 09:33:22;;;;;;;0.00;0.00;;;15.10;99.90;;;;;;5127038;27;20297;-60
2022/04/07 09:36:19;;;;;;;1.03;0.00;;;14.90;99.50;;;;;;5128098;27;20239;-52
2022/04/07 09:39:04;;;;;;;0.10;0.10;;;14.50;99.40;;;;;;5125206;27;20195;-60
2022/04/07 09:41:48;;;;;;;0.27;0.27;;;14.20;99.50;;;;;;5127055;27;20219;-57
2022/04/07 09:44:37;;;;;;;0.37;0.27;;;14.20;99.80;;;;;;5128521;27;20551;-56
2022/04/07 09:47:22;;;;;;;0.10;0.10;;;13.90;99.70;;;;;;5125329;27;20203;-51
2022/04/07 09:50:10;;;;;;;0.10;0.10;;;13.80;99.90;;;;;;5127087;27;20300;-59
2022/04/07 09:53:17;;;;;;;0.93;0.10;;;13.80;99.90;;;;;;5127082;27;20272;-60
2022/04/07 09:56:03;;;;;;;0.20;0.20;;;13.60;99.90;;;;;;5124906;27;20190;-53
2022/04/07 09:58:48;;;;;;;0.57;0.10;;;13.70;99.90;;;;;;5126933;27;20191;-58
2022/04/07 10:01:34;;;;;;;0.10;0.10;;;13.80;99.80;;;;;;5127265;27;20268;-61
2022/04/07 10:04:22;;;;;;;0.10;0.00;;;13.80;99.80;;;;;;5124431;27;20206;-57
2022/04/07 10:07:11;;;;;;;0.00;0.00;;;13.90;99.60;;;;;;5126711;27;20256;-58
2022/04/07 10:09:56;;;;;;;0.10;0.10;;;13.90;99.60;;;;;;5126375;27;20270;-57
2022/04/07 10:12:41;;;;;;;0.10;0.10;;;14.00;99.50;;;;;;5124595;27;20199;-58
2022/04/07 10:15:26;;;;;;;0.03;0.03;;;14.10;99.00;;;;;;5127193;27;20283;-49
2022/04/07 10:18:19;;;;;;;0.77;0.10;;;14.10;99.30;;;;;;5125139;27;20237;-57
2022/04/07 10:21:10;;;;;;;0.00;0.00;;;14.10;99.00;;;;;;5124589;27;20301;-52
2022/04/07 10:24:19;;;;;;;0.00;0.00;;;14.40;98.80;;;;;;5127329;27;20241;-56
2022/04/07 10:27:09;;;;;;;0.10;0.10;;;14.90;98.50;;;;;;5125448;27;20210;-60
2022/04/07 10:30:10;;;;;;;0.00;0.00;;;14.70;98.30;;;;;;5124078;27;20219;-52
2022/04/07 10:32:58;;;;;;;0.00;0.00;;;14.60;98.40;;;;;;5126220;27;20191;-54
2022/04/07 10:35:43;;;;;;;0.00;0.00;;;14.70;98.20;;;;;;5125491;27;20199;-57
2022/04/07 10:38:41;;;;;;;0.13;0.00;;;14.80;98.40;;;;;;5123685;27;20219;-55
2022/04/07 10:41:38;;;;;;;0.00;0.00;;;14.50;97.80;;;;;;5126537;27;20235;-55
2022/04/07 10:44:25;;;;;;;0.00;0.00;;;14.50;97.90;;;;;;5124822;27;20191;-58
2022/04/07 10:47:09;;;;;;;0.00;0.00;;;14.40;98.00;;;;;;5124058;27;20202;-54
2022/04/07 10:49:56;;;;;;;0.20;0.20;;;14.50;97.90;;;;;;5126427;27;20223;-55
2022/04/07 10:52:44;;;;;;;0.03;0.03;;;14.50;97.70;;;;;;5124091;27;20199;-51
2022/04/07 10:55:54;;;;;;;0.00;0.00;;;14.40;98.10;;;;;;5125086;27;20288;-56
2022/04/07 10:58:42;;;;;;;0.60;0.00;;;14.60;98.10;;;;;;5125250;27;20222;-47
2022/04/07 11:01:32;;;;;;;0.00;0.00;;;14.60;97.90;;;;;;5123420;27;20223;-58
2022/04/07 11:04:25;;;;;;;0.10;0.10;;;14.60;98.00;;;;;;5122751;27;20322;-57
2022/04/07 11:07:11;;;;;;;0.10;0.00;;;14.70;97.80;;;;;;5124691;27;20187;-61
2022/04/07 11:09:57;;;;;;;0.43;0.10;;;14.60;97.60;;;;;;5121772;27;20289;-49
2022/04/07 11:13:01;;;;;;;0.00;0.00;;;14.60;97.70;;;;;;5123122;27;20194;-55
2022/04/07 11:15:57;;;;;;;0.23;0.07;;;14.70;97.70;;;;;;5124545;27;20198;-51
2022/04/07 11:18:52;;;;;;;0.43;0.10;;;14.70;97.60;;;;;;5123237;27;20196;-55
2022/04/07 11:21:45;;;;;;;0.17;0.10;;;14.60;98.00;;;;;;5122992;27;20253;-59
2022/04/07 11:24:34;;;;;;;0.10;0.10;;;14.50;97.50;;;;;;5125429;27;20257;-48
2022/04/07 11:27:35;;;;;;;0.57;0.20;;;14.60;97.40;;;;;;5122841;27;20198;-54
2022/04/07 11:30:20;;;;;;;0.10;0.10;;;14.50;97.30;;;;;;5122601;27;20269;-47
2022/04/07 11:33:20;;;;;;;1.60;0.20;;;14.60;98.10;;;;;;5124535;27;20187;-55
2022/04/07 11:36:05;;;;;;;0.10;0.10;;;14.60;97.50;;;;;;5122558;27;20253;-49
2022/04/07 11:38:52;;;;;;;0.00;0.00;;;14.80;97.80;;;;;;5122311;27;20276;-52
2022/04/07 11:41:41;;;;;;;0.00;0.00;;;14.70;98.60;;;;;;5125160;27;20277;-58
2022/04/07 11:44:26;;;;;;;0.23;0.23;;;14.60;99.10;;;;;;5122921;27;20195;-57
2022/04/07 11:47:24;;;;;;;0.03;0.03;;;14.60;99.10;;;;;;5123629;27;20249;-61
2022/04/07 11:50:09;;;;;;;0.83;0.00;;;14.30;99.40;;;;;;5124725;27;20303;-57
2022/04/07 11:52:53;;;;;;;0.00;0.00;;;14.30;98.80;;;;;;5122853;27;20195;-54
2022/04/07 11:55:38;;;;;;;0.00;0.00;;;14.40;98.70;;;;;;5124944;27;20264;-59
2022/04/07 11:58:22;;;;;;;0.00;0.00;;;14.40;98.80;;;;;;5125748;27;20286;-52
2022/04/07 12:01:13;;;;;;;0.00;0.00;;;14.30;99.40;;;;;;5122360;27;20275;-52
2022/04/07 12:04:02;;;;;;;0.00;0.00;;;14.30;99.60;;;;;;5124441;27;20248;-49
2022/04/07 12:06:48;;;;;;;0.20;0.00;;;14.50;99.30;;;;;;5124992;27;20195;-56
2022/04/07 12:09:32;;;;;;;0.00;0.00;;;14.60;99.10;;;;;;5122279;27;20214;-52
2022/04/07 12:12:18;;;;;;;0.00;0.00;;;14.50;99.50;;;;;;5124802;27;20253;-49
2022/04/07 12:15:02;;;;;;;0.00;0.00;;;14.80;99.00;;;;;;5123604;28;20191;-56
2022/04/07 12:18:04;;;;;;;0.53;0.10;;;15.10;98.80;;;;;;5122485;28;20218;-60
2022/04/07 12:20:58;;;;;;;0.00;0.00;;;15.30;98.30;;;;;;5124484;28;20195;-60
2022/04/07 12:23:42;;;;;;;0.00;0.00;;;15.00;98.40;;;;;;5123196;28;20200;-59
2022/04/07 12:26:38;;;;;;;0.00;0.00;;;15.20;98.40;;;;;;5122498;28;20211;-61
2022/04/07 12:29:25;;;;;;;1.23;0.17;;;15.20;97.70;;;;;;5124214;28;20216;-60
2022/04/07 12:32:10;;;;;;;0.00;0.00;;;15.20;97.50;;;;;;5123045;28;20199;-57
2022/04/07 12:34:55;;;;;;;0.00;0.00;;;15.00;97.50;;;;;;5122587;28;20199;-52
2022/04/07 12:37:43;;;;;;;0.00;0.00;;;15.00;97.40;;;;;;5125003;28;20268;-49
2022/04/07 12:40:28;;;;;;;0.00;0.00;;;15.10;97.40;;;;;;5122539;28;20196;-55
2022/04/07 12:43:12;;;;;;;0.00;0.00;;;15.00;97.20;;;;;;5123181;28;20269;-53
2022/04/07 12:45:58;;;;;;;0.00;0.00;;;15.00;97.40;;;;;;5125086;28;20194;-55
2022/04/07 12:49:05;;;;;;;0.10;0.10;;;15.10;97.30;;;;;;5122106;28;20277;-52
2022/04/07 12:52:06;;;;;;;1.50;0.10;;;15.30;97.30;;;;;;5123204;28;20264;-49
2022/04/07 12:55:10;;;;;;;0.10;0.00;;;15.40;97.00;;;;;;5124955;28;20199;-49
2022/04/07 12:57:55;;;;;;;0.00;0.00;;;15.40;97.10;;;;;;5122298;28;20184;-51
2022/04/07 13:00:39;;;;;;;0.00;0.00;;;15.30;97.20;;;;;;5122983;28;20301;-58
2022/04/07 13:03:28;;;;;;;0.00;0.00;;;15.30;97.20;;;;;;5127804;27;20602;-51
2022/04/07 13:06:12;;;;;;;0.00;0.00;;;15.50;97.00;;;;;;5125967;27;20782;-58
2022/04/07 13:08:56;;;;;;;0.00;0.00;;;15.60;96.90;;;;;;5127811;27;20598;-58
2022/04/07 13:11:41;;;;;;;0.00;0.00;;;15.70;96.80;;;;;;5128410;27;20199;-60
2022/04/07 13:14:26;;;;;;;0.00;0.00;;;15.70;97.00;;;;;;5125665;27;20195;-58
2022/04/07 13:17:11;;;;;;;0.10;0.10;;;15.80;96.60;;;;;;5128330;27;20202;-51
2022/04/07 13:19:56;;;;;;;0.00;0.00;;;15.60;96.80;;;;;;5127585;27;20188;-60
2022/04/07 13:22:41;;;;;;;0.00;0.00;;;15.40;97.00;;;;;;5125684;27;20206;-56
2022/04/07 13:25:25;;;;;;;0.10;0.10;;;15.20;96.90;;;;;;5128590;27;20246;-57
2022/04/07 13:28:09;;;;;;;0.00;0.00;;;15.40;97.10;;;;;;5125928;27;20206;-60
2022/04/07 13:30:53;;;;;;;0.00;0.00;;;14.90;99.90;;;;;;5126262;27;20250;-56
2022/04/07 13:33:37;;;;;;;0.00;0.00;;;14.70;99.40;;;;;;5128189;27;20196;-55
2022/04/07 13:36:22;;;;;;;0.10;0.00;;;14.70;98.40;;;;;;5125446;27;20208;-61
2022/04/07 13:39:07;;;;;;;0.00;0.00;;;15.00;98.20;;;;;;5126836;27;20311;-53
2022/04/07 13:41:51;;;;;;;0.00;0.00;;;15.10;97.80;;;;;;5127118;27;20266;-59
2022/04/07 13:44:36;;;;;;;0.00;0.00;;;15.10;98.00;;;;;;5124890;27;20215;-61
2022/04/07 13:47:20;;;;;;;0.53;0.07;;;15.20;97.60;;;;;;5126589;27;20210;-61
2022/04/07 13:50:05;;;;;;;0.27;0.10;;;15.30;97.40;;;;;;5126060;27;20240;-56
2022/04/07 13:52:49;;;;;;;0.10;0.10;;;15.40;97.40;;;;;;5124977;27;20198;-56
2022/04/07 13:55:34;;;;;;;0.30;0.20;;;15.50;97.10;;;;;;5127725;27;20235;-61
2022/04/07 13:58:19;;;;;;;0.30;0.20;;;15.40;97.20;;;;;;5124858;27;20245;-58
2022/04/07 14:01:09;;;;;;;0.00;0.00;;;15.50;97.10;;;;;;5125789;27;20188;-52
2022/04/07 14:03:56;;;;;;;0.00;0.00;;;15.30;97.10;;;;;;5127028;27;20245;-56
2022/04/07 14:06:40;;;;;;;0.10;0.10;;;15.50;97.20;;;;;;5124618;27;20190;-57
2022/04/07 14:09:24;;;;;;;0.00;0.00;;;15.20;97.30;;;;;;5126811;27;20192;-60
2022/04/07 14:12:09;;;;;;;0.00;0.00;;;15.30;97.40;;;;;;5127590;27;20239;-53
2022/04/07 14:14:53;;;;;;;0.00;0.00;;;15.50;97.10;;;;;;5123721;27;20213;-57
2022/04/07 14:17:38;;;;;;;0.00;0.00;;;15.50;97.20;;;;;;5127296;27;20219;-60
2022/04/07 14:20:25;;;;;;;0.10;0.10;;;15.30;97.30;;;;;;5126559;27;20227;-59
2022/04/07 14:23:12;;;;;;;0.00;0.00;;;15.20;97.40;;;;;;5124311;27;20219;-57
2022/04/07 14:25:56;;;;;;;0.03;0.03;;;15.10;97.80;;;;;;5127223;27;20191;-49